Time;durP1;ratioP1;P1;durP2;ratioP2;P2;SDS_P1;SDS_P2;PMS_P1;PMS_P2;Temp;Humidity;BMP_temperature;BMP_pressure;BME280_temperature;BME280_humidity;BME280_pressure;Samples;Min_cycle;Max_cycle;Signal;HPM_P1;HPM_P2
2023/08/06 00:03:38;;;;;;;3.80;2.83;;;15.00;99.90;;;;;;7371676;32;20220;-56
2023/08/06 00:07:40;;;;;;;6.47;3.47;;;15.00;99.90;;;;;;7369540;32;20508;-55
2023/08/06 00:11:43;;;;;;;5.85;2.83;;;15.00;99.90;;;;;;7372892;32;20155;-56
2023/08/06 00:15:45;;;;;;;4.87;2.97;;;14.90;99.90;;;;;;7362519;32;20194;-56
2023/08/06 00:19:47;;;;;;;5.57;3.05;;;15.00;99.90;;;;;;7372142;32;20510;-55
2023/08/06 00:23:49;;;;;;;4.45;2.80;;;14.90;99.90;;;;;;7368405;32;20310;-55
2023/08/06 00:27:50;;;;;;;4.43;2.60;;;14.90;99.90;;;;;;7366018;32;20158;-55
2023/08/06 00:31:52;;;;;;;7.30;3.00;;;14.90;99.90;;;;;;7371428;32;20187;-55
2023/08/06 00:35:54;;;;;;;4.65;3.17;;;14.90;99.90;;;;;;7364691;32;20129;-56
2023/08/06 00:39:56;;;;;;;6.87;3.10;;;14.70;99.90;;;;;;7360630;32;20125;-55
2023/08/06 00:43:58;;;;;;;3.97;3.05;;;14.80;99.90;;;;;;7362501;32;20107;-55
2023/08/06 00:48:00;;;;;;;5.80;3.55;;;14.70;99.90;;;;;;7365076;32;20204;-55
2023/08/06 00:52:03;;;;;;;4.40;3.08;;;14.70;99.90;;;;;;7369408;32;20322;-55
2023/08/06 00:56:07;;;;;;;7.03;3.03;;;14.60;99.90;;;;;;7361431;32;20583;-55
2023/08/06 01:00:09;;;;;;;7.20;3.00;;;14.60;99.90;;;;;;7364400;32;20115;-55
2023/08/06 01:04:12;;;;;;;4.72;2.92;;;14.60;99.90;;;;;;7370824;32;20265;-55
2023/08/06 01:08:51;;;;;;;4.53;2.97;;;14.70;99.90;;;;;;7361970;32;20674;-56
2023/08/06 01:13:27;;;;;;;4.30;2.90;;;14.60;99.90;;;;;;7369547;32;20111;-55
2023/08/06 01:17:30;;;;;;;5.28;2.90;;;14.70;99.90;;;;;;7362442;32;20603;-56
2023/08/06 01:21:32;;;;;;;6.95;3.30;;;14.70;99.90;;;;;;7366665;32;20154;-55
2023/08/06 01:25:42;;;;;;;5.03;3.42;;;14.70;99.90;;;;;;7363458;32;20714;-55
2023/08/06 01:29:50;;;;;;;4.85;2.90;;;14.80;99.90;;;;;;7368054;32;20602;-55
2023/08/06 01:33:53;;;;;;;3.80;2.90;;;14.80;99.90;;;;;;7370716;32;20185;-55
2023/08/06 01:37:56;;;;;;;3.25;2.70;;;14.80;99.90;;;;;;7358667;32;20171;-55
2023/08/06 01:41:57;;;;;;;5.05;2.70;;;14.80;99.90;;;;;;7362995;32;20138;-55
2023/08/06 01:45:59;;;;;;;4.53;2.80;;;14.80;99.90;;;;;;7367417;32;20240;-55
2023/08/06 01:50:01;;;;;;;4.25;2.60;;;14.80;99.90;;;;;;7366287;32;20546;-55
2023/08/06 01:54:03;;;;;;;3.42;2.47;;;14.90;99.90;;;;;;7358006;32;20269;-56
2023/08/06 01:58:05;;;;;;;5.53;2.80;;;14.90;99.90;;;;;;7363058;32;20639;-55
2023/08/06 02:02:06;;;;;;;3.53;2.45;;;14.90;99.90;;;;;;7367940;32;20385;-55
2023/08/06 02:06:08;;;;;;;3.40;2.67;;;14.90;99.90;;;;;;7370470;32;20099;-55
2023/08/06 02:10:10;;;;;;;4.90;2.83;;;14.90;99.90;;;;;;7370984;32;20130;-55
2023/08/06 02:14:12;;;;;;;2.97;2.10;;;14.80;99.90;;;;;;7356747;32;20208;-55
2023/08/06 02:18:17;;;;;;;3.22;2.47;;;14.90;99.90;;;;;;7372800;32;20159;-55
2023/08/06 02:22:19;;;;;;;5.53;2.70;;;14.90;99.90;;;;;;7378876;32;20111;-55
2023/08/06 02:26:21;;;;;;;4.43;2.78;;;14.90;99.90;;;;;;7373795;32;20961;-55
2023/08/06 02:30:22;;;;;;;5.43;2.10;;;14.90;99.90;;;;;;7377012;32;20623;-56
2023/08/06 02:34:25;;;;;;;3.45;2.62;;;14.90;99.90;;;;;;7374464;32;20098;-57
2023/08/06 02:38:26;;;;;;;4.47;2.45;;;14.90;99.90;;;;;;7369155;32;20125;-55
2023/08/06 02:42:28;;;;;;;4.47;2.62;;;15.00;99.90;;;;;;7366808;32;20670;-55
2023/08/06 02:46:30;;;;;;;5.07;2.80;;;14.90;99.90;;;;;;7377462;32;20181;-55
2023/08/06 02:50:38;;;;;;;5.85;2.70;;;14.90;99.90;;;;;;7368849;32;20099;-56
2023/08/06 02:54:40;;;;;;;4.55;2.30;;;14.90;99.90;;;;;;7373282;32;20103;-55
2023/08/06 02:58:42;;;;;;;6.50;2.22;;;14.90;99.90;;;;;;7367279;32;20095;-56
2023/08/06 03:02:44;;;;;;;3.42;2.40;;;14.90;99.90;;;;;;7367105;32;20107;-56
2023/08/06 03:06:45;;;;;;;4.15;2.65;;;14.90;99.90;;;;;;7372216;32;20111;-57
2023/08/06 03:10:47;;;;;;;7.40;3.00;;;14.90;99.90;;;;;;7363652;32;20095;-56
2023/08/06 03:14:49;;;;;;;3.55;2.67;;;14.90;99.90;;;;;;7367857;32;20104;-55
2023/08/06 03:18:51;;;;;;;5.40;2.75;;;14.90;99.90;;;;;;7362302;32;20115;-55
2023/08/06 03:22:52;;;;;;;6.30;2.80;;;14.90;99.90;;;;;;7374199;32;20221;-56
2023/08/06 03:26:54;;;;;;;5.07;2.42;;;14.90;99.90;;;;;;7369239;32;20099;-56
2023/08/06 03:31:03;;;;;;;4.20;2.65;;;14.90;99.90;;;;;;7361971;32;20144;-56
2023/08/06 03:35:05;;;;;;;3.95;3.00;;;14.90;99.90;;;;;;7372435;32;20099;-56
2023/08/06 03:39:06;;;;;;;7.18;2.83;;;14.90;99.90;;;;;;7370915;32;20114;-56
2023/08/06 03:43:08;;;;;;;6.45;2.53;;;14.80;99.90;;;;;;7361704;32;20190;-56
2023/08/06 03:47:10;;;;;;;5.30;3.00;;;14.90;99.90;;;;;;7371267;32;20103;-55
2023/08/06 03:51:11;;;;;;;5.78;2.90;;;14.90;99.90;;;;;;7369104;32;20156;-56
2023/08/06 03:55:13;;;;;;;4.50;2.40;;;14.80;99.90;;;;;;7365528;32;20449;-55
2023/08/06 03:59:15;;;;;;;3.97;2.87;;;14.80;99.90;;;;;;7372614;32;20542;-55
2023/08/06 04:03:17;;;;;;;5.43;2.55;;;14.80;99.90;;;;;;7371608;32;20115;-55
2023/08/06 04:07:18;;;;;;;6.30;2.67;;;14.80;99.90;;;;;;7365658;32;20442;-56
2023/08/06 04:11:20;;;;;;;4.82;2.05;;;14.90;99.90;;;;;;7371213;32;20107;-56
2023/08/06 04:15:22;;;;;;;4.10;2.62;;;14.90;99.90;;;;;;7370899;32;20614;-56
2023/08/06 04:19:23;;;;;;;5.18;2.25;;;14.90;99.90;;;;;;7368747;32;20107;-56
2023/08/06 04:23:25;;;;;;;4.03;2.90;;;14.80;99.90;;;;;;7369064;32;20920;-56
2023/08/06 04:27:27;;;;;;;3.00;2.33;;;14.80;99.90;;;;;;7362307;32;20103;-56
2023/08/06 04:31:29;;;;;;;6.72;2.25;;;14.80;99.90;;;;;;7371485;32;20247;-55
2023/08/06 04:35:31;;;;;;;5.85;2.47;;;14.80;99.90;;;;;;7365238;32;21200;-55
2023/08/06 04:39:32;;;;;;;3.53;2.65;;;14.80;99.90;;;;;;7368803;32;20276;-55
2023/08/06 04:43:34;;;;;;;5.37;2.65;;;14.80;99.90;;;;;;7364341;32;20102;-56
2023/08/06 04:47:36;;;;;;;5.90;2.50;;;14.90;99.90;;;;;;7366598;32;20588;-55
2023/08/06 04:51:38;;;;;;;3.05;2.00;;;14.90;99.90;;;;;;7365064;32;20099;-55
2023/08/06 04:55:40;;;;;;;5.12;2.20;;;15.10;99.90;;;;;;7362683;32;20126;-55
2023/08/06 04:59:42;;;;;;;4.57;2.47;;;15.10;99.90;;;;;;7363988;32;20185;-55
2023/08/06 05:03:43;;;;;;;6.00;2.55;;;15.10;99.90;;;;;;7356901;32;20222;-55
2023/08/06 05:07:48;;;;;;;3.60;2.00;;;15.10;99.90;;;;;;7355794;32;20099;-57
2023/08/06 05:11:50;;;;;;;5.70;2.10;;;15.20;99.90;;;;;;7368750;32;20248;-55
2023/08/06 05:15:55;;;;;;;6.50;2.12;;;15.20;99.90;;;;;;7365224;32;20536;-55
2023/08/06 05:19:57;;;;;;;3.95;1.87;;;15.20;99.90;;;;;;7375874;32;20165;-56
2023/08/06 05:23:59;;;;;;;2.75;1.83;;;15.10;99.90;;;;;;7363702;32;20261;-55
2023/08/06 05:28:01;;;;;;;3.35;2.25;;;15.10;99.90;;;;;;7366265;32;20423;-55
2023/08/06 05:32:03;;;;;;;4.10;2.22;;;15.10;99.90;;;;;;7361684;32;20118;-55
2023/08/06 05:36:05;;;;;;;5.60;2.03;;;15.20;99.90;;;;;;7363332;32;20094;-55
2023/08/06 05:40:07;;;;;;;4.75;2.15;;;15.20;99.90;;;;;;7365561;32;20107;-56
2023/08/06 05:44:09;;;;;;;4.20;2.03;;;15.30;99.90;;;;;;7363316;32;20167;-57
2023/08/06 05:48:11;;;;;;;4.22;1.92;;;15.40;99.90;;;;;;7363259;32;20119;-57
2023/08/06 05:52:13;;;;;;;5.85;2.03;;;15.40;99.90;;;;;;7356226;32;21385;-58
2023/08/06 05:56:15;;;;;;;6.45;2.03;;;15.40;99.90;;;;;;7361705;32;20152;-57
2023/08/06 06:00:17;;;;;;;3.45;1.90;;;15.50;99.90;;;;;;7363168;32;20126;-57
2023/08/06 06:04:18;;;;;;;5.57;1.85;;;15.50;99.90;;;;;;7365154;32;20520;-58
2023/08/06 06:08:20;;;;;;;3.90;2.15;;;15.70;99.90;;;;;;7364858;32;20095;-57
2023/08/06 06:12:22;;;;;;;5.78;1.83;;;15.70;99.90;;;;;;7366796;32;20769;-57
2023/08/06 06:16:24;;;;;;;4.93;1.70;;;15.70;99.90;;;;;;7363394;32;20810;-57
2023/08/06 06:20:25;;;;;;;2.85;1.50;;;15.90;99.90;;;;;;7363641;32;20107;-57
2023/08/06 06:24:27;;;;;;;3.40;1.70;;;16.10;99.90;;;;;;7359052;32;20123;-58
2023/08/06 06:28:29;;;;;;;2.80;1.30;;;16.30;99.90;;;;;;7365557;32;20572;-58
2023/08/06 06:32:31;;;;;;;3.85;1.20;;;16.70;99.90;;;;;;7362362;32;20645;-57
2023/08/06 06:36:32;;;;;;;5.12;1.12;;;17.00;99.90;;;;;;7366920;32;20253;-58
2023/08/06 06:40:34;;;;;;;2.65;1.23;;;17.30;99.90;;;;;;7363745;32;20110;-58
2023/08/06 06:44:36;;;;;;;2.17;0.80;;;17.40;99.90;;;;;;7366658;32;20253;-58
2023/08/06 06:48:38;;;;;;;2.85;0.90;;;17.70;99.90;;;;;;7361060;32;20111;-58
2023/08/06 06:52:39;;;;;;;2.47;1.10;;;17.90;99.90;;;;;;7364709;32;20275;-58
2023/08/06 06:56:41;;;;;;;2.42;0.80;;;17.90;99.90;;;;;;7366409;32;20114;-58
2023/08/06 07:00:43;;;;;;;1.55;0.80;;;17.70;99.90;;;;;;7366466;32;20198;-58
2023/08/06 07:04:45;;;;;;;2.42;1.08;;;17.50;99.90;;;;;;7368480;32;20095;-59
2023/08/06 07:08:47;;;;;;;1.98;1.12;;;17.50;99.90;;;;;;7373753;32;20107;-58
2023/08/06 07:12:48;;;;;;;1.80;0.80;;;17.80;99.90;;;;;;7368988;32;20693;-58
2023/08/06 07:16:50;;;;;;;2.80;0.90;;;17.90;99.90;;;;;;7360305;32;20117;-60
2023/08/06 07:20:54;;;;;;;1.08;0.70;;;17.90;99.90;;;;;;7370051;32;20107;-62
2023/08/06 07:24:55;;;;;;;1.45;0.80;;;18.00;99.90;;;;;;7365580;32;20107;-64
2023/08/06 07:28:57;;;;;;;1.37;0.62;;;18.10;99.90;;;;;;7366049;32;20277;-58
2023/08/06 07:32:59;;;;;;;2.75;0.80;;;18.60;99.90;;;;;;7367439;32;20200;-58
2023/08/06 07:37:01;;;;;;;1.50;0.55;;;18.60;99.90;;;;;;7373315;32;20325;-58
2023/08/06 07:41:03;;;;;;;0.85;0.50;;;18.60;99.90;;;;;;7368464;32;20099;-58
2023/08/06 07:45:05;;;;;;;1.65;0.60;;;18.50;99.90;;;;;;7365287;32;20305;-58
2023/08/06 07:49:07;;;;;;;1.80;0.90;;;18.30;99.90;;;;;;7370117;32;20159;-58
2023/08/06 07:53:08;;;;;;;1.25;0.80;;;18.40;99.90;;;;;;7369031;32;20264;-58
2023/08/06 07:57:11;;;;;;;2.65;0.68;;;18.50;99.90;;;;;;7360335;32;20099;-58
2023/08/06 08:01:12;;;;;;;1.15;0.70;;;18.50;99.90;;;;;;7365996;32;20218;-58
2023/08/06 08:05:14;;;;;;;3.28;1.05;;;18.50;99.90;;;;;;7362732;32;20099;-58
2023/08/06 08:09:16;;;;;;;1.12;0.60;;;18.60;99.90;;;;;;7365953;32;20096;-55
2023/08/06 08:13:18;;;;;;;1.87;0.80;;;18.80;99.90;;;;;;7364141;32;20156;-55
2023/08/06 08:17:20;;;;;;;3.40;0.80;;;18.70;99.90;;;;;;7360950;32;20594;-55
2023/08/06 08:21:23;;;;;;;2.00;1.00;;;18.80;99.90;;;;;;7369232;32;20459;-55
2023/08/06 08:25:26;;;;;;;3.35;1.20;;;18.70;99.90;;;;;;7364934;32;20114;-57
2023/08/06 08:29:32;;;;;;;4.90;1.60;;;18.40;99.90;;;;;;7373681;32;20198;-54
2023/08/06 08:33:34;;;;;;;3.87;1.70;;;18.20;99.90;;;;;;7360048;32;20726;-55
2023/08/06 08:37:36;;;;;;;2.28;1.65;;;17.90;99.90;;;;;;7363187;32;20158;-55
2023/08/06 08:41:38;;;;;;;2.15;1.50;;;17.70;99.90;;;;;;7360304;32;20205;-54
2023/08/06 08:45:42;;;;;;;3.15;1.55;;;17.70;99.90;;;;;;7367618;32;20324;-53
2023/08/06 08:49:46;;;;;;;6.10;1.75;;;17.60;99.90;;;;;;7366647;32;20292;-59
2023/08/06 08:53:50;;;;;;;3.37;1.60;;;17.60;99.90;;;;;;7363853;32;20103;-57
2023/08/06 08:57:52;;;;;;;2.35;1.70;;;17.80;99.90;;;;;;7363877;32;20160;-57
2023/08/06 09:01:55;;;;;;;3.30;1.30;;;18.00;99.90;;;;;;7368614;32;20210;-58
2023/08/06 09:05:58;;;;;;;2.65;1.37;;;18.00;99.90;;;;;;7367659;32;20156;-57
2023/08/06 09:10:03;;;;;;;3.25;1.23;;;18.30;99.90;;;;;;7360982;32;20590;-57
2023/08/06 09:14:08;;;;;;;6.43;2.20;;;18.10;99.90;;;;;;7359688;32;20485;-58
2023/08/06 09:18:11;;;;;;;3.53;2.58;;;18.00;99.90;;;;;;7361030;32;20188;-58
2023/08/06 09:22:13;;;;;;;5.20;3.92;;;17.90;99.90;;;;;;7366014;32;20123;-57
2023/08/06 09:26:15;;;;;;;5.78;4.20;;;17.80;99.90;;;;;;7359463;32;20566;-57
2023/08/06 09:30:32;;;;;;;6.78;4.47;;;18.00;99.90;;;;;;7355674;32;20273;-57
2023/08/06 09:34:34;;;;;;;6.60;3.50;;;18.10;99.90;;;;;;7364378;32;20198;-57
2023/08/06 09:38:40;;;;;;;4.53;3.17;;;18.20;99.90;;;;;;7362127;32;20148;-57
2023/08/06 09:42:44;;;;;;;3.30;2.70;;;18.50;99.90;;;;;;7362046;32;20111;-57
2023/08/06 09:47:03;;;;;;;3.70;2.20;;;18.60;99.90;;;;;;7360614;32;20133;-57
2023/08/06 09:51:07;;;;;;;3.03;2.45;;;18.70;99.90;;;;;;7359079;32;20277;-55
2023/08/06 09:55:12;;;;;;;3.15;2.12;;;18.60;99.90;;;;;;7364177;32;20525;-57
2023/08/06 09:59:15;;;;;;;3.87;2.00;;;18.60;99.90;;;;;;7358564;32;20107;-57
2023/08/06 10:03:17;;;;;;;4.57;2.25;;;18.60;99.90;;;;;;7361583;32;20183;-61
2023/08/06 10:07:20;;;;;;;3.55;1.80;;;18.40;99.90;;;;;;7368624;32;20215;-62
2023/08/06 10:11:24;;;;;;;4.45;2.20;;;18.10;99.90;;;;;;7369139;32;20127;-57
2023/08/06 10:15:28;;;;;;;4.97;1.87;;;17.90;99.90;;;;;;7353268;32;20694;-58
2023/08/06 10:19:31;;;;;;;4.55;2.58;;;17.70;99.90;;;;;;7359221;32;20123;-55
2023/08/06 10:23:35;;;;;;;4.43;2.10;;;17.50;99.90;;;;;;7365392;32;20104;-57
2023/08/06 10:27:56;;;;;;;3.45;1.58;;;17.20;99.90;;;;;;7358722;32;20130;-58
2023/08/06 10:32:00;;;;;;;5.85;2.10;;;16.80;99.90;;;;;;7363704;32;20125;-57
2023/08/06 10:36:07;;;;;;;6.35;2.85;;;16.50;99.90;;;;;;7364839;32;20253;-57
2023/08/06 10:40:09;;;;;;;7.77;1.97;;;16.20;99.90;;;;;;7361242;32;20224;-57
2023/08/06 10:44:11;;;;;;;5.85;2.33;;;15.70;99.90;;;;;;7367608;32;20297;-57
2023/08/06 10:48:34;;;;;;;3.20;2.08;;;15.40;99.90;;;;;;7364646;32;20171;-57
2023/08/06 10:52:35;;;;;;;4.75;2.35;;;15.30;99.90;;;;;;7366203;32;20324;-59
2023/08/06 10:56:41;;;;;;;5.70;2.22;;;14.90;99.90;;;;;;7362085;32;20186;-56
2023/08/06 11:00:42;;;;;;;3.72;1.70;;;14.70;99.90;;;;;;7371298;32;20115;-57
2023/08/06 11:04:44;;;;;;;5.55;2.20;;;14.60;99.90;;;;;;7371280;32;20221;-57
2023/08/06 11:08:51;;;;;;;2.33;1.60;;;14.50;99.90;;;;;;7368273;32;20170;-58
2023/08/06 11:12:52;;;;;;;1.77;1.23;;;14.50;99.90;;;;;;7365776;32;20154;-57
2023/08/06 11:16:54;;;;;;;2.55;1.60;;;14.40;99.90;;;;;;7364247;32;20276;-57
2023/08/06 11:20:59;;;;;;;3.12;2.08;;;14.40;99.90;;;;;;7366479;32;20120;-57
2023/08/06 11:25:01;;;;;;;2.50;2.30;;;14.30;99.90;;;;;;7370890;32;20134;-57
2023/08/06 11:29:03;;;;;;;4.85;2.22;;;14.30;99.90;;;;;;7367492;32;20127;-57
2023/08/06 11:33:07;;;;;;;3.30;2.60;;;14.10;99.90;;;;;;7372592;32;20272;-58
2023/08/06 11:37:10;;;;;;;4.05;3.53;;;14.10;99.90;;;;;;7367950;32;20119;-56
2023/08/06 11:41:12;;;;;;;7.32;3.62;;;14.10;99.90;;;;;;7371135;32;20556;-55
2023/08/06 11:45:14;;;;;;;5.10;3.65;;;14.00;99.90;;;;;;7363354;32;20191;-57
2023/08/06 11:49:15;;;;;;;5.15;4.60;;;14.00;99.90;;;;;;7358882;32;20254;-57
2023/08/06 11:53:17;;;;;;;6.47;4.87;;;14.00;99.90;;;;;;7368660;32;20689;-55
2023/08/06 11:57:20;;;;;;;6.28;5.00;;;14.00;99.90;;;;;;7365962;32;20493;-56
2023/08/06 12:01:21;;;;;;;7.35;5.47;;;14.10;99.90;;;;;;7369639;32;20202;-56
2023/08/06 12:05:29;;;;;;;5.30;4.72;;;14.10;99.90;;;;;;7364489;32;20522;-56
2023/08/06 12:09:31;;;;;;;8.18;5.25;;;14.20;99.90;;;;;;7368192;32;20249;-56
2023/08/06 12:13:32;;;;;;;7.78;4.62;;;14.10;99.90;;;;;;7365406;32;20151;-56
2023/08/06 12:17:35;;;;;;;6.15;4.32;;;14.30;99.90;;;;;;7363727;32;20119;-57
2023/08/06 12:21:37;;;;;;;4.12;3.67;;;14.20;99.90;;;;;;7372951;32;20185;-56
2023/08/06 12:25:38;;;;;;;5.95;3.00;;;14.20;99.90;;;;;;7367567;32;20135;-57
2023/08/06 12:29:44;;;;;;;3.60;2.53;;;14.30;99.90;;;;;;7360896;32;20215;-56
2023/08/06 12:33:46;;;;;;;3.10;2.80;;;14.20;99.90;;;;;;7366423;32;20175;-56
2023/08/06 12:37:47;;;;;;;7.40;4.95;;;14.20;99.90;;;;;;7370759;32;20114;-56
2023/08/06 12:41:49;;;;;;;3.08;2.50;;;14.30;99.90;;;;;;7362601;32;20116;-56
2023/08/06 12:45:51;;;;;;;3.95;2.87;;;14.40;99.90;;;;;;7366379;32;20135;-56
2023/08/06 12:49:53;;;;;;;4.20;3.47;;;14.40;99.90;;;;;;7367187;32;20163;-56
2023/08/06 12:53:55;;;;;;;3.33;2.80;;;14.40;99.90;;;;;;7366500;32;20468;-55
2023/08/06 12:57:56;;;;;;;4.72;3.40;;;14.50;99.90;;;;;;7366319;32;20204;-56
2023/08/06 13:02:00;;;;;;;4.45;2.90;;;14.50;99.90;;;;;;7365779;32;20240;-57
2023/08/06 13:06:02;;;;;;;4.60;3.20;;;14.40;99.90;;;;;;7369553;32;20116;-56
2023/08/06 13:10:04;;;;;;;3.65;2.60;;;14.50;99.90;;;;;;7366829;32;20115;-58
2023/08/06 13:14:10;;;;;;;3.47;2.58;;;14.60;99.90;;;;;;7362228;32;20158;-56
2023/08/06 13:18:12;;;;;;;4.75;2.85;;;14.50;99.90;;;;;;7361056;32;20107;-56
2023/08/06 13:22:14;;;;;;;4.30;2.40;;;14.50;99.90;;;;;;7364867;32;20106;-56
2023/08/06 13:26:15;;;;;;;4.28;2.35;;;14.50;99.90;;;;;;7360604;32;20190;-57
2023/08/06 13:30:18;;;;;;;4.22;3.78;;;14.40;99.90;;;;;;7367005;32;20319;-56
2023/08/06 13:34:20;;;;;;;4.55;3.67;;;14.40;99.90;;;;;;7356068;32;20181;-56
2023/08/06 13:38:22;;;;;;;4.10;3.20;;;14.30;99.90;;;;;;7369533;32;20178;-55
2023/08/06 13:42:24;;;;;;;5.12;3.08;;;14.50;99.90;;;;;;7366148;32;20122;-57
2023/08/06 13:46:26;;;;;;;4.75;2.80;;;14.40;99.90;;;;;;7361620;32;20230;-55
2023/08/06 13:50:28;;;;;;;4.57;3.00;;;14.40;99.90;;;;;;7364871;32;20142;-56
2023/08/06 13:54:30;;;;;;;6.30;2.92;;;14.40;99.90;;;;;;7363968;32;20371;-55
2023/08/06 13:58:32;;;;;;;7.62;3.90;;;14.40;99.90;;;;;;7367530;32;20214;-56
2023/08/06 14:02:34;;;;;;;6.15;3.00;;;14.40;99.90;;;;;;7359072;32;20270;-56
2023/08/06 14:06:36;;;;;;;6.18;3.90;;;14.40;99.90;;;;;;7368089;32;20166;-56
2023/08/06 14:10:37;;;;;;;5.45;2.70;;;14.60;99.90;;;;;;7371454;32;20201;-55
2023/08/06 14:14:40;;;;;;;4.65;3.00;;;14.70;99.90;;;;;;7369478;32;20217;-57
2023/08/06 14:18:41;;;;;;;5.10;2.80;;;14.70;99.90;;;;;;7369590;32;21048;-55
2023/08/06 14:22:43;;;;;;;4.70;2.40;;;14.70;99.90;;;;;;7369473;32;20891;-57
2023/08/06 14:26:45;;;;;;;12.20;7.55;;;14.90;99.90;;;;;;7365387;32;20205;-57
2023/08/06 14:30:47;;;;;;;5.07;2.90;;;14.90;99.90;;;;;;7368262;32;20180;-56
2023/08/06 14:34:48;;;;;;;6.85;2.72;;;14.90;99.90;;;;;;7368563;32;20190;-55
2023/08/06 14:38:50;;;;;;;8.25;2.87;;;14.90;99.90;;;;;;7365010;32;20099;-55
2023/08/06 14:43:02;;;;;;;5.53;3.17;;;15.00;99.90;;;;;;7365226;32;20252;-56
2023/08/06 14:47:04;;;;;;;6.05;2.70;;;15.00;99.90;;;;;;7362263;32;20285;-55
2023/08/06 14:51:05;;;;;;;6.30;2.80;;;15.00;99.90;;;;;;7366665;32;20143;-55
2023/08/06 14:55:07;;;;;;;6.93;3.95;;;15.00;99.90;;;;;;7370201;32;20260;-55
2023/08/06 14:59:09;;;;;;;4.70;3.10;;;15.10;99.90;;;;;;7366477;32;20173;-55
2023/08/06 15:03:11;;;;;;;3.15;2.00;;;15.20;99.90;;;;;;7363921;32;20205;-56
2023/08/06 15:07:13;;;;;;;5.50;2.33;;;15.20;99.90;;;;;;7368922;32;20201;-55
2023/08/06 15:11:15;;;;;;;2.62;1.40;;;15.30;99.90;;;;;;7368946;32;20213;-56
2023/08/06 15:15:16;;;;;;;6.55;2.75;;;15.20;99.90;;;;;;7363003;32;20141;-55
2023/08/06 15:19:18;;;;;;;2.60;1.85;;;15.10;99.90;;;;;;7364390;32;20282;-55
2023/08/06 15:23:20;;;;;;;2.35;1.60;;;15.10;99.90;;;;;;7358729;32;20126;-56
2023/08/06 15:27:22;;;;;;;4.97;1.80;;;15.10;99.90;;;;;;7362423;32;20235;-55
2023/08/06 15:31:23;;;;;;;5.45;1.85;;;15.10;99.90;;;;;;7367092;32;20131;-57
2023/08/06 15:35:26;;;;;;;6.97;2.30;;;15.20;99.90;;;;;;7367566;32;20132;-56
2023/08/06 15:39:28;;;;;;;4.57;1.77;;;15.10;99.90;;;;;;7365269;32;20099;-55
2023/08/06 15:43:30;;;;;;;3.45;1.92;;;15.30;99.90;;;;;;7370018;32;20114;-56
2023/08/06 15:47:32;;;;;;;3.87;1.58;;;15.20;99.90;;;;;;7355917;32;20166;-54
2023/08/06 15:51:33;;;;;;;4.80;1.70;;;15.20;99.90;;;;;;7361249;32;20115;-60
2023/08/06 15:55:37;;;;;;;2.28;1.35;;;15.10;99.90;;;;;;7358564;32;20245;-56
2023/08/06 15:59:39;;;;;;;3.50;1.80;;;15.00;99.90;;;;;;7365699;32;20193;-55
2023/08/06 16:03:44;;;;;;;4.65;1.65;;;14.90;99.90;;;;;;7363233;32;20099;-56
2023/08/06 16:07:45;;;;;;;5.10;2.12;;;14.90;99.90;;;;;;7363853;32;20900;-57
2023/08/06 16:11:47;;;;;;;2.10;1.30;;;14.90;99.90;;;;;;7356782;32;21121;-55
2023/08/06 16:15:49;;;;;;;1.40;0.95;;;14.90;99.90;;;;;;7365119;32;20103;-56
2023/08/06 16:19:53;;;;;;;4.43;1.48;;;14.90;99.90;;;;;;7364769;32;20669;-56
2023/08/06 16:23:58;;;;;;;;;;;14.90;99.90;;;;;;7358724;32;20114;-55
2023/08/06 16:28:00;;;;;;;4.00;1.33;;;14.90;99.90;;;;;;7367439;32;20018;-56
2023/08/06 16:32:04;;;;;;;1.40;0.90;;;14.90;99.90;;;;;;7363335;32;20795;-55
2023/08/06 16:36:06;;;;;;;2.17;1.20;;;15.00;99.90;;;;;;7358869;32;20111;-55
2023/08/06 16:40:09;;;;;;;7.30;1.20;;;14.80;99.90;;;;;;7363067;32;20289;-57
2023/08/06 16:44:12;;;;;;;1.83;1.23;;;14.70;99.90;;;;;;7358598;32;20134;-56
2023/08/06 16:48:13;;;;;;;1.92;1.20;;;14.70;99.90;;;;;;7365488;32;20186;-55
2023/08/06 16:52:16;;;;;;;3.37;1.60;;;14.70;99.90;;;;;;7366445;32;20155;-57
2023/08/06 16:56:18;;;;;;;4.07;1.55;;;14.70;99.90;;;;;;7365759;32;20137;-56
2023/08/06 17:00:20;;;;;;;2.20;1.17;;;14.60;99.90;;;;;;7365094;32;20111;-58
2023/08/06 17:04:22;;;;;;;2.42;1.27;;;14.70;99.90;;;;;;7370673;32;20224;-55
2023/08/06 17:08:24;;;;;;;4.05;2.03;;;14.60;99.90;;;;;;7357564;32;20115;-57
2023/08/06 17:12:26;;;;;;;3.05;1.60;;;14.60;99.90;;;;;;7358071;32;20591;-56
2023/08/06 17:16:27;;;;;;;2.92;1.75;;;14.50;99.90;;;;;;7364736;32;20130;-55
2023/08/06 17:20:30;;;;;;;4.75;1.20;;;14.50;99.90;;;;;;7360251;32;20111;-56
2023/08/06 17:24:31;;;;;;;2.30;1.40;;;14.60;99.90;;;;;;7355406;32;20174;-55
2023/08/06 17:28:33;;;;;;;1.30;1.02;;;14.60;99.90;;;;;;7360813;32;20156;-56
2023/08/06 17:32:35;;;;;;;3.47;2.67;;;14.60;99.90;;;;;;7366268;32;20119;-55
2023/08/06 17:36:37;;;;;;;6.82;4.47;;;14.60;99.90;;;;;;7362615;32;20233;-56
2023/08/06 17:40:39;;;;;;;8.30;5.25;;;14.60;99.90;;;;;;7362145;32;20269;-56
2023/08/06 17:44:41;;;;;;;6.57;3.65;;;14.60;99.90;;;;;;7370793;32;20144;-57
2023/08/06 17:48:43;;;;;;;4.93;2.60;;;14.50;99.90;;;;;;7357359;32;20298;-56
2023/08/06 17:52:45;;;;;;;4.07;2.20;;;14.40;99.90;;;;;;7360159;32;20121;-55
2023/08/06 17:56:47;;;;;;;6.30;3.80;;;14.40;99.90;;;;;;7360850;32;20102;-56
2023/08/06 18:00:49;;;;;;;4.70;1.80;;;14.40;99.90;;;;;;7359567;32;20115;-56
2023/08/06 18:04:51;;;;;;;3.85;1.67;;;14.40;99.90;;;;;;7358908;32;20150;-56
2023/08/06 18:08:53;;;;;;;3.35;1.62;;;14.40;99.90;;;;;;7362024;32;20111;-56
2023/08/06 18:12:55;;;;;;;5.57;1.70;;;14.40;99.90;;;;;;7357907;32;20126;-55
2023/08/06 18:16:56;;;;;;;5.57;1.40;;;14.30;99.90;;;;;;7363250;32;20135;-56
2023/08/06 18:20:59;;;;;;;3.47;1.75;;;14.20;99.90;;;;;;7355539;32;20138;-56
2023/08/06 18:25:04;;;;;;;3.15;1.62;;;14.20;99.90;;;;;;7357471;32;20506;-56
2023/08/06 18:29:06;;;;;;;5.82;1.92;;;14.20;99.90;;;;;;7357924;32;20183;-56
2023/08/06 18:33:08;;;;;;;5.18;2.80;;;14.10;99.90;;;;;;7354555;32;20138;-56
2023/08/06 18:37:09;;;;;;;7.15;1.52;;;14.00;99.90;;;;;;7358793;32;20134;-56
2023/08/06 18:41:11;;;;;;;2.53;0.90;;;13.90;99.90;;;;;;7363794;32;20235;-56
2023/08/06 18:45:13;;;;;;;8.05;2.60;;;13.90;99.90;;;;;;7360576;32;20161;-56
2023/08/06 18:49:15;;;;;;;8.85;1.30;;;13.80;99.90;;;;;;7365836;32;20201;-56
2023/08/06 18:53:16;;;;;;;7.15;1.40;;;13.80;99.90;;;;;;7364184;32;20224;-56
2023/08/06 18:57:19;;;;;;;4.82;1.33;;;13.70;99.90;;;;;;7368003;32;20119;-56
2023/08/06 19:01:21;;;;;;;9.80;1.42;;;13.70;99.90;;;;;;7359114;32;20194;-55
2023/08/06 19:05:26;;;;;;;11.60;2.03;;;13.60;99.90;;;;;;7369226;32;20183;-56
2023/08/06 19:09:28;;;;;;;6.43;1.83;;;13.60;99.90;;;;;;7365374;32;20145;-56
2023/08/06 19:13:30;;;;;;;11.93;2.33;;;13.60;99.90;;;;;;7363744;32;20122;-56
2023/08/06 19:17:31;;;;;;;9.13;2.15;;;13.50;99.90;;;;;;7363776;32;20457;-55
2023/08/06 19:21:33;;;;;;;7.50;1.48;;;13.50;99.90;;;;;;7363875;32;20134;-56
2023/08/06 19:25:48;;;;;;;8.70;1.90;;;13.50;99.90;;;;;;7366733;32;20706;-56
2023/08/06 19:29:51;;;;;;;6.78;1.70;;;13.50;99.90;;;;;;7360937;32;20533;-55
2023/08/06 19:33:52;;;;;;;8.25;1.67;;;13.50;99.90;;;;;;7363804;32;20119;-56
2023/08/06 19:37:54;;;;;;;8.02;1.40;;;13.60;99.90;;;;;;7365528;32;20125;-55
2023/08/06 19:41:56;;;;;;;7.65;2.20;;;13.50;99.90;;;;;;7365683;32;20550;-57
2023/08/06 19:45:58;;;;;;;8.82;1.70;;;13.40;99.90;;;;;;7371210;32;20110;-56
2023/08/06 19:50:00;;;;;;;8.30;1.80;;;13.50;99.90;;;;;;7364920;32;20735;-56
2023/08/06 19:54:02;;;;;;;9.63;1.77;;;13.50;99.90;;;;;;7363110;32;20179;-54
2023/08/06 19:58:04;;;;;;;11.27;2.65;;;13.40;99.90;;;;;;7367215;32;20220;-55
2023/08/06 20:02:05;;;;;;;11.93;1.80;;;13.40;99.90;;;;;;7371696;32;20176;-57
2023/08/06 20:06:08;;;;;;;11.45;2.45;;;13.40;99.90;;;;;;7363344;32;21618;-55
2023/08/06 20:10:10;;;;;;;9.23;1.27;;;13.40;99.90;;;;;;7365778;32;20584;-55
2023/08/06 20:14:12;;;;;;;8.98;1.60;;;13.40;99.90;;;;;;7372003;32;20125;-54
2023/08/06 20:18:14;;;;;;;9.73;1.80;;;13.40;99.90;;;;;;7368261;32;20124;-55
2023/08/06 20:22:16;;;;;;;9.90;1.65;;;13.40;99.90;;;;;;7369668;32;20153;-55
2023/08/06 20:26:18;;;;;;;10.50;1.90;;;13.30;99.90;;;;;;7361754;32;20283;-55
2023/08/06 20:30:20;;;;;;;11.73;2.17;;;13.40;99.90;;;;;;7360337;32;20256;-54
2023/08/06 20:34:22;;;;;;;9.30;2.10;;;13.40;99.90;;;;;;7367531;32;20135;-54
2023/08/06 20:38:24;;;;;;;8.25;1.50;;;13.30;99.90;;;;;;7360244;32;20506;-55
2023/08/06 20:42:26;;;;;;;7.40;1.55;;;13.30;99.90;;;;;;7362022;32;20205;-55
2023/08/06 20:46:28;;;;;;;10.27;1.73;;;13.30;99.90;;;;;;7363309;32;20338;-54
2023/08/06 20:50:30;;;;;;;9.95;1.80;;;13.20;99.90;;;;;;7360744;32;20146;-56
2023/08/06 20:54:32;;;;;;;9.68;1.55;;;13.20;99.90;;;;;;7359415;32;20144;-55
2023/08/06 20:58:33;;;;;;;8.73;1.67;;;13.20;99.90;;;;;;7362399;32;20221;-55
2023/08/06 21:02:35;;;;;;;10.68;1.48;;;13.10;99.90;;;;;;7362123;32;20107;-54
2023/08/06 21:06:37;;;;;;;7.55;1.33;;;13.10;99.90;;;;;;7367671;32;20096;-55